Time;durP1;ratioP1;P1;durP2;ratioP2;P2;SDS_P1;SDS_P2;PMS_P1;PMS_P2;Temp;Humidity;BMP_temperature;BMP_pressure;BME280_temperature;BME280_humidity;BME280_pressure;Samples;Min_cycle;Max_cycle;Signal;HPM_P1;HPM_P2
2024/01/28 00:02:28;;;;;;;;;;;;;;;4.51;60.92;101167.19;4417976;32;32760;-80
2024/01/28 00:04:57;;;;;;;;;;;;;;;4.51;60.84;101169.78;4408042;32;33623;-80
2024/01/28 00:07:27;;;;;;;;;;;;;;;4.34;61.53;101171.75;4414371;32;33813;-81
2024/01/28 00:09:58;;;;;;;;;;;;;;;4.25;61.61;101173.16;4415829;32;32616;-81
2024/01/28 00:12:33;;;;;;;;;;;;;;;4.38;61.19;101177.03;4411808;32;34368;-80
2024/01/28 00:15:02;;;;;;;;;;;;;;;4.37;61.20;101175.28;4416661;32;34143;-80
2024/01/28 00:17:33;;;;;;;;;;;;;;;4.20;61.79;101173.81;4412209;32;31826;-80
2024/01/28 00:20:03;;;;;;;;;;;;;;;4.21;61.85;101173.88;4414519;32;34237;-80
2024/01/28 00:22:33;;;;;;;;;;;;;;;4.11;62.15;101169.22;4408175;32;34673;-80
2024/01/28 00:25:04;;;;;;;;;;;;;;;4.24;61.74;101170.53;4417124;32;33628;-80
2024/01/28 00:27:33;;;;;;;;;;;;;;;4.06;62.34;101173.31;4418958;32;33223;-80
2024/01/28 00:30:04;;;;;;;;;;;;;;;4.22;61.86;101178.19;4504867;26;33777;-80
2024/01/28 00:32:34;;;;;;;;;;;;;;;4.20;61.82;101184.06;4412835;32;33793;-81
2024/01/28 00:35:03;;;;;;;;;;;;;;;4.01;62.57;101185.97;4408052;32;34246;-80
2024/01/28 00:37:33;;;;;;;;;;;;;;;4.10;62.37;101185.44;4417525;32;32596;-80
2024/01/28 00:40:04;;;;;;;;;;;;;;;4.09;62.34;101190.53;4418625;32;33593;-80
2024/01/28 00:42:34;;;;;;;;;;;;;;;4.20;61.87;101190.09;4413163;32;33953;-80
2024/01/28 00:45:07;;;;;;;;;;;;;;;4.31;61.56;101199.91;4407165;32;33841;-80
2024/01/28 00:47:43;;;;;;;;;;;;;;;4.47;61.00;101199.63;4409210;32;34038;-81
2024/01/28 00:50:11;;;;;;;;;;;;;;;4.34;60.98;101200.88;4414064;32;33859;-80
2024/01/28 00:52:43;;;;;;;;;;;;;;;4.29;61.44;101197.25;4372050;32;1110635;-81
2024/01/28 00:55:13;;;;;;;;;;;;;;;4.49;60.35;101206.59;4400749;32;34856;-80
2024/01/28 00:57:43;;;;;;;;;;;;;;;4.33;60.67;101201.69;4409569;32;34411;-80
2024/01/28 01:00:13;;;;;;;;;;;;;;;4.35;60.69;101192.38;4418771;32;33706;-81
2024/01/28 01:02:45;;;;;;;;;;;;;;;4.47;60.22;101200.50;4407138;32;35123;-81
2024/01/28 01:05:14;;;;;;;;;;;;;;;4.27;60.49;101204.91;4410702;32;33953;-80
2024/01/28 01:07:44;;;;;;;;;;;;;;;4.27;60.50;101201.47;4406804;32;33164;-80
2024/01/28 01:10:14;;;;;;;;;;;;;;;3.94;61.53;101209.69;4409970;32;34203;-80
2024/01/28 01:12:43;;;;;;;;;;;;;;;3.88;61.64;101209.44;4406604;32;34938;-80
2024/01/28 01:15:15;;;;;;;;;;;;;;;3.94;61.45;101212.25;4413634;32;33392;-80
2024/01/28 01:17:49;;;;;;;;;;;;;;;4.06;60.94;101219.53;4408731;32;32780;-80
2024/01/28 01:20:18;;;;;;;;;;;;;;;4.10;60.66;101216.25;4405745;32;34112;-80
2024/01/28 01:22:47;;;;;;;;;;;;;;;3.80;61.44;101221.09;4406136;32;33867;-80
2024/01/28 01:25:17;;;;;;;;;;;;;;;4.00;61.19;101215.03;4400470;32;33830;-80
2024/01/28 01:27:48;;;;;;;;;;;;;;;4.07;60.73;101226.41;4415542;32;33907;-80
2024/01/28 01:30:19;;;;;;;;;;;;;;;4.17;60.55;101214.78;4419807;32;33756;-80
2024/01/28 01:32:49;;;;;;;;;;;;;;;4.18;60.60;101220.00;4405129;32;34909;-80
2024/01/28 01:35:20;;;;;;;;;;;;;;;3.90;61.05;101218.06;4407912;32;35014;-80
2024/01/28 01:37:51;;;;;;;;;;;;;;;4.06;60.87;101214.41;4411142;32;33197;-80
2024/01/28 01:40:21;;;;;;;;;;;;;;;4.03;61.07;101209.13;4407721;32;33586;-80
2024/01/28 01:42:57;;;;;;;;;;;;;;;4.06;60.92;101216.97;4399950;32;33404;-81
2024/01/28 01:45:25;;;;;;;;;;;;;;;3.79;61.85;101209.97;4413474;32;33897;-80
2024/01/28 01:47:56;;;;;;;;;;;;;;;4.06;61.11;101209.28;4416851;32;34658;-80
2024/01/28 01:50:25;;;;;;;;;;;;;;;4.14;60.87;101213.00;4403328;32;34402;-80
2024/01/28 01:52:59;;;;;;;;;;;;;;;4.23;60.50;101220.19;4388384;32;34257;-80
2024/01/28 01:55:33;;;;;;;;;;;;;;;4.27;60.34;101209.16;4400467;32;34544;-80
2024/01/28 01:58:09;;;;;;;;;;;;;;;4.17;60.66;101217.38;4405728;32;34109;-80
2024/01/28 02:00:38;;;;;;;;;;;;;;;4.38;60.15;101212.16;4401792;32;33585;-80
2024/01/28 02:03:08;;;;;;;;;;;;;;;4.42;59.95;101220.03;4403202;32;34628;-80
2024/01/28 02:05:37;;;;;;;;;;;;;;;4.38;60.00;101210.44;4415561;32;34170;-80
2024/01/28 02:08:09;;;;;;;;;;;;;;;4.39;59.84;101211.31;4409538;32;33171;-80
2024/01/28 02:10:40;;;;;;;;;;;;;;;4.48;59.71;101215.09;4405913;32;33860;-80
2024/01/28 02:13:11;;;;;;;;;;;;;;;4.32;60.15;101211.91;4400290;32;34325;-80
2024/01/28 02:15:43;;;;;;;;;;;;;;;4.44;59.92;101210.66;4403977;32;34707;-81
2024/01/28 02:18:15;;;;;;;;;;;;;;;4.24;60.58;101204.81;4416162;32;32867;-80
2024/01/28 02:20:48;;;;;;;;;;;;;;;4.22;60.75;101220.97;4405688;32;34029;-80
2024/01/28 02:23:18;;;;;;;;;;;;;;;4.21;60.78;101235.53;4404622;32;34336;-81
2024/01/28 02:25:47;;;;;;;;;;;;;;;4.34;60.64;101230.84;4400265;32;34287;-81
2024/01/28 02:28:17;;;;;;;;;;;;;;;4.52;59.81;101233.19;4413078;32;34237;-80
2024/01/28 02:30:49;;;;;;;;;;;;;;;4.61;59.11;101231.81;4404159;32;34015;-80
2024/01/28 02:33:18;;;;;;;;;;;;;;;4.49;59.33;101234.84;4405686;32;34097;-80
2024/01/28 02:35:47;;;;;;;;;;;;;;;4.27;60.06;101240.00;4402680;32;34059;-80
2024/01/28 02:38:21;;;;;;;;;;;;;;;4.36;59.94;101242.03;4402620;32;33051;-80
2024/01/28 02:40:55;;;;;;;;;;;;;;;4.45;59.43;101234.69;4402374;32;33967;-81
2024/01/28 02:43:24;;;;;;;;;;;;;;;4.19;60.37;101241.41;4401775;32;34065;-80
2024/01/28 02:45:56;;;;;;;;;;;;;;;4.20;60.31;101241.44;4412480;32;34617;-80
2024/01/28 02:48:24;;;;;;;;;;;;;;;4.30;60.15;101249.50;4409269;32;33218;-80
2024/01/28 02:50:54;;;;;;;;;;;;;;;4.07;60.64;101252.09;4401965;32;34043;-80
2024/01/28 02:53:24;;;;;;;;;;;;;;;4.03;60.96;101250.22;4401749;32;34335;-80
2024/01/28 02:55:57;;;;;;;;;;;;;;;4.14;60.81;101248.94;4408785;32;33792;-80
2024/01/28 02:58:26;;;;;;;;;;;;;;;3.94;61.60;101252.44;4402636;32;33011;-81
2024/01/28 03:00:57;;;;;;;;;;;;;;;3.81;62.14;101259.66;4404049;32;34719;-80
2024/01/28 03:03:27;;;;;;;;;;;;;;;3.92;61.51;101251.53;4406528;32;35111;-80
2024/01/28 03:05:56;;;;;;;;;;;;;;;4.08;60.68;101248.69;4405916;32;33720;-81
2024/01/28 03:08:30;;;;;;;;;;;;;;;3.98;60.98;101244.91;4407339;32;33465;-80
2024/01/28 03:11:00;;;;;;;;;;;;;;;4.15;60.60;101249.81;4406495;32;34386;-80
2024/01/28 03:13:29;;;;;;;;;;;;;;;3.95;60.95;101249.94;4489869;26;35035;-79
2024/01/28 03:15:57;;;;;;;;;;;;;;;3.71;62.00;101251.53;4432408;32;32445;-80
2024/01/28 03:18:27;;;;;;;;;;;;;;;4.05;61.07;101253.72;4443574;32;34322;-80
2024/01/28 03:20:56;;;;;;;;;;;;;;;3.99;61.51;101249.25;4447600;32;34171;-80
2024/01/28 03:23:25;;;;;;;;;;;;;;;3.97;61.17;101243.16;4440342;32;34215;-81
2024/01/28 03:25:58;;;;;;;;;;;;;;;3.80;61.45;101250.22;4432155;32;34169;-80
2024/01/28 03:28:30;;;;;;;;;;;;;;;4.08;60.46;101243.56;4438068;32;33842;-80
2024/01/28 03:30:59;;;;;;;;;;;;;;;4.31;58.93;101248.72;4432684;32;34181;-80
2024/01/28 03:33:30;;;;;;;;;;;;;;;4.15;57.65;101254.94;4431578;32;33732;-80
2024/01/28 03:36:00;;;;;;;;;;;;;;;4.02;57.79;101259.63;4431965;32;33828;-80
2024/01/28 03:38:35;;;;;;;;;;;;;;;4.29;56.23;101264.06;4433095;32;33394;-80
2024/01/28 03:41:05;;;;;;;;;;;;;;;4.40;56.30;101277.31;4437784;32;34636;-80
2024/01/28 03:43:34;;;;;;;;;;;;;;;4.31;56.55;101280.41;4430788;32;33996;-80
2024/01/28 03:46:07;;;;;;;;;;;;;;;4.60;56.55;101276.34;4432218;32;33477;-80
2024/01/28 03:48:37;;;;;;;;;;;;;;;4.65;57.05;101269.69;4436427;32;33880;-80
2024/01/28 03:51:06;;;;;;;;;;;;;;;4.33;58.28;101277.91;4437339;32;34875;-80
2024/01/28 03:53:35;;;;;;;;;;;;;;;4.59;57.71;101268.56;4432313;32;34231;-80
2024/01/28 03:56:09;;;;;;;;;;;;;;;4.24;59.02;101278.44;4431775;32;33687;-80
2024/01/28 03:58:40;;;;;;;;;;;;;;;4.37;58.87;101284.91;4434539;32;33306;-80
2024/01/28 04:01:08;;;;;;;;;;;;;;;4.24;59.37;101291.28;4432772;32;34862;-80
2024/01/28 04:03:41;;;;;;;;;;;;;;;4.16;59.98;101292.69;4437989;32;34812;-79
2024/01/28 04:06:10;;;;;;;;;;;;;;;4.20;59.63;101285.13;4446924;32;34140;-80
2024/01/28 04:08:39;;;;;;;;;;;;;;;4.24;59.27;101287.00;4441564;32;33469;-80
2024/01/28 04:11:09;;;;;;;;;;;;;;;4.13;60.01;101300.25;4433823;32;34201;-80
2024/01/28 04:13:45;;;;;;;;;;;;;;;3.72;61.54;101296.91;4530553;26;33790;-80
2024/01/28 04:16:14;;;;;;;;;;;;;;;4.18;59.79;101291.91;4416451;32;34224;-80
2024/01/28 04:18:46;;;;;;;;;;;;;;;3.85;60.85;101284.63;4418184;32;33659;-80
2024/01/28 04:21:15;;;;;;;;;;;;;;;3.84;60.89;101293.16;4420399;32;33556;-80
2024/01/28 04:23:51;;;;;;;;;;;;;;;4.06;60.14;101301.72;4416498;32;34616;-80
2024/01/28 04:26:22;;;;;;;;;;;;;;;4.17;59.91;101291.84;4421882;32;33861;-80
2024/01/28 04:28:56;;;;;;;;;;;;;;;4.02;60.49;101299.84;4414723;32;33151;-80
2024/01/28 04:31:29;;;;;;;;;;;;;;;4.22;59.78;101308.31;4419273;32;34071;-80
2024/01/28 04:33:58;;;;;;;;;;;;;;;3.96;60.17;101309.84;4416569;32;33990;-80
2024/01/28 04:36:27;;;;;;;;;;;;;;;3.94;60.49;101319.19;4416836;32;34023;-80
2024/01/28 04:38:59;;;;;;;;;;;;;;;3.91;60.65;101324.22;4423270;32;32393;-80
2024/01/28 04:41:33;;;;;;;;;;;;;;;3.76;61.26;101325.34;4417318;32;34259;-80
2024/01/28 04:44:02;;;;;;;;;;;;;;;3.62;61.95;101335.06;4415819;32;34007;-80
2024/01/28 04:46:31;;;;;;;;;;;;;;;4.23;60.07;101323.78;4418868;32;33997;-81
2024/01/28 04:49:03;;;;;;;;;;;;;;;3.93;60.50;101326.03;4437435;32;33109;-80
2024/01/28 04:51:38;;;;;;;;;;;;;;;3.37;62.49;101333.13;4426939;32;34701;-80
2024/01/28 04:54:08;;;;;;;;;;;;;;;3.69;62.33;101328.47;4529872;26;35514;-79
2024/01/28 04:56:39;;;;;;;;;;;;;;;3.93;61.20;101331.16;4415228;32;34425;-79
2024/01/28 04:59:07;;;;;;;;;;;;;;;3.78;61.58;101328.84;4421553;32;33328;-80
2024/01/28 05:01:38;;;;;;;;;;;;;;;3.74;61.94;101344.94;4445758;27;34011;-80
2024/01/28 05:04:07;;;;;;;;;;;;;;;3.87;61.59;101342.84;4425537;32;33837;-80
2024/01/28 05:06:36;;;;;;;;;;;;;;;3.89;61.49;101343.81;4416862;32;33893;-81
2024/01/28 05:09:08;;;;;;;;;;;;;;;3.89;61.55;101352.41;4417791;32;32998;-80
2024/01/28 05:11:41;;;;;;;;;;;;;;;3.77;62.29;101349.31;4421965;32;33608;-80
2024/01/28 05:14:10;;;;;;;;;;;;;;;3.63;62.78;101356.47;4401974;32;35026;-80
2024/01/28 05:16:41;;;;;;;;;;;;;;;3.86;62.05;101344.56;4422083;32;32367;-80
2024/01/28 05:19:09;;;;;;;;;;;;;;;3.78;62.79;101338.25;4420237;32;33508;-80
2024/01/28 05:21:42;;;;;;;;;;;;;;;3.77;63.15;101345.06;4425347;32;33872;-80
2024/01/28 05:24:10;;;;;;;;;;;;;;;3.63;63.85;101343.62;4425009;32;33969;-80
2024/01/28 05:26:46;;;;;;;;;;;;;;;3.59;64.18;101344.31;4415828;32;33432;-80
2024/01/28 05:29:16;;;;;;;;;;;;;;;3.70;63.73;101337.06;4417451;32;33907;-80
2024/01/28 05:31:46;;;;;;;;;;;;;;;3.84;63.56;101343.62;4416053;32;33826;-80
2024/01/28 05:34:15;;;;;;;;;;;;;;;3.93;63.19;101344.00;4421471;32;35141;-80
2024/01/28 05:36:48;;;;;;;;;;;;;;;3.75;63.93;101344.12;4415799;32;33967;-80
2024/01/28 05:39:16;;;;;;;;;;;;;;;3.67;64.02;101347.19;4420443;32;33274;-80
2024/01/28 05:41:45;;;;;;;;;;;;;;;3.68;63.78;101354.97;4431033;32;34126;-80
2024/01/28 05:44:20;;;;;;;;;;;;;;;3.71;64.25;101349.94;4536997;26;33773;-80
2024/01/28 05:46:49;;;;;;;;;;;;;;;3.56;64.90;101359.59;4419876;32;32816;-80
2024/01/28 05:49:19;;;;;;;;;;;;;;;3.72;64.52;101361.09;4400968;32;33683;-80
2024/01/28 05:51:47;;;;;;;;;;;;;;;3.29;65.99;101355.03;4416682;32;34228;-80
2024/01/28 05:54:17;;;;;;;;;;;;;;;3.63;65.18;101371.88;4415619;32;33592;-80
2024/01/28 05:56:47;;;;;;;;;;;;;;;3.59;65.17;101359.72;4406978;32;33732;-80
2024/01/28 05:59:23;;;;;;;;;;;;;;;3.01;67.09;101372.59;4415278;32;32726;-80
2024/01/28 06:01:56;;;;;;;;;;;;;;;3.39;66.19;101364.88;4414900;32;33869;-80
2024/01/28 06:04:28;;;;;;;;;;;;;;;3.39;66.82;101364.88;4414770;32;34218;-80
2024/01/28 06:06:57;;;;;;;;;;;;;;;3.44;66.55;101380.47;4415129;32;34189;-80
2024/01/28 06:09:33;;;;;;;;;;;;;;;3.56;66.15;101382.69;4419852;32;32700;-80
2024/01/28 06:12:06;;;;;;;;;;;;;;;3.57;65.92;101382.72;4417585;32;34595;-80
2024/01/28 06:14:36;;;;;;;;;;;;;;;3.69;65.64;101386.63;4414300;32;35000;-80
2024/01/28 06:17:09;;;;;;;;;;;;;;;3.53;66.10;101391.12;4420503;32;34029;-80
2024/01/28 06:19:39;;;;;;;;;;;;;;;3.50;66.40;101390.09;4422696;32;33518;-80
2024/01/28 06:22:08;;;;;;;;;;;;;;;3.33;66.85;101385.13;4423135;32;34273;-80
2024/01/28 06:24:42;;;;;;;;;;;;;;;3.47;66.44;101384.84;4420544;32;34164;-80
2024/01/28 06:27:16;;;;;;;;;;;;;;;3.53;66.23;101393.69;4420564;32;34481;-80
2024/01/28 06:32:28;;;;;;;;;;;;;;;3.55;66.13;101397.22;4405145;27;33909;-80
2024/01/28 06:34:57;;;;;;;;;;;;;;;3.37;66.90;101394.72;4403991;32;34078;-80
2024/01/28 06:37:30;;;;;;;;;;;;;;;3.29;67.31;101396.06;4398249;32;34160;-80
2024/01/28 06:40:09;;;;;;;;;;;;;;;3.42;67.11;101394.91;4390747;32;33203;-79
2024/01/28 06:42:38;;;;;;;;;;;;;;;3.52;66.73;101398.75;4404908;32;34510;-80
2024/01/28 06:45:17;;;;;;;;;;;;;;;3.27;67.33;101401.94;4397485;32;34533;-80
2024/01/28 06:47:50;;;;;;;;;;;;;;;3.42;67.43;101400.91;4397350;32;34280;-80
2024/01/28 06:50:20;;;;;;;;;;;;;;;3.52;67.31;101404.75;4398926;32;33239;-80
2024/01/28 06:52:49;;;;;;;;;;;;;;;3.45;67.57;101396.72;4394388;32;34710;-80
2024/01/28 06:55:18;;;;;;;;;;;;;;;3.49;67.70;101404.62;4399460;32;34098;-81
2024/01/28 06:57:47;;;;;;;;;;;;;;;3.41;68.04;101411.12;4399845;32;34193;-81
2024/01/28 07:00:19;;;;;;;;;;;;;;;3.44;68.34;101410.37;4393963;32;34315;-80
2024/01/28 07:02:54;;;;;;;;;;;;;;;3.48;68.26;101419.94;4398443;32;34011;-80
2024/01/28 07:05:25;;;;;;;;;;;;;;;3.49;68.30;101421.72;4419509;32;33843;-80
2024/01/28 07:07:54;;;;;;;;;;;;;;;3.52;68.34;101419.28;4422962;32;35139;-80
2024/01/28 07:10:23;;;;;;;;;;;;;;;3.63;68.35;101423.19;4397837;32;33031;-81
2024/01/28 07:12:58;;;;;;;;;;;;;;;3.59;68.39;101417.03;4396867;32;34961;-80
2024/01/28 07:15:27;;;;;;;;;;;;;;;3.74;67.83;101429.63;4397040;32;34343;-80
2024/01/28 07:17:57;;;;;;;;;;;;;;;3.74;68.05;101434.78;4407328;32;33698;-81
2024/01/28 07:20:27;;;;;;;;;;;;;;;3.89;67.49;101428.53;4418632;32;33059;-81
2024/01/28 07:22:56;;;;;;;;;;;;;;;3.73;68.10;101435.59;4397517;32;34125;-80
2024/01/28 07:25:26;;;;;;;;;;;;;;;3.67;68.52;101430.19;4398615;32;35558;-81
2024/01/28 07:27:56;;;;;;;;;;;;;;;3.92;67.63;101444.97;4388284;32;34376;-81
2024/01/28 07:30:27;;;;;;;;;;;;;;;4.03;67.28;101440.25;4400768;32;33192;-81
2024/01/28 07:33:07;;;;;;;;;;;;;;;3.78;67.79;101446.94;4406193;32;34347;-81
2024/01/28 07:35:43;;;;;;;;;;;;;;;3.94;67.61;101445.00;4402206;32;33895;-81
2024/01/28 07:38:13;;;;;;;;;;;;;;;3.91;67.75;101450.87;4400465;32;33965;-81
2024/01/28 07:40:42;;;;;;;;;;;;;;;4.01;67.77;101454.72;4398839;32;33343;-80
2024/01/28 07:43:11;;;;;;;;;;;;;;;3.78;68.56;101449.50;4404394;32;34679;-80
2024/01/28 07:45:43;;;;;;;;;;;;;;;3.82;68.18;101451.41;4402100;32;33792;-80
2024/01/28 07:50:56;;;;;;;;;;;;;;;4.04;67.52;101445.47;4507044;26;32879;-80
2024/01/28 07:53:25;;;;;;;;;;;;;;;4.09;67.41;101449.94;4410833;32;33594;-81
2024/01/28 07:55:55;;;;;;;;;;;;;;;4.27;66.65;101455.78;4462991;26;1083757;-81
2024/01/28 07:58:27;;;;;;;;;;;;;;;4.14;67.32;101448.41;4409252;32;34690;-81
2024/01/28 08:00:57;;;;;;;;;;;;;;;4.01;67.80;101452.16;4532985;26;33830;-81
2024/01/28 08:03:32;;;;;;;;;;;;;;;4.16;67.66;101459.63;4416245;32;33833;-80
2024/01/28 08:06:04;;;;;;;;;;;;;;;4.17;67.58;101463.94;4426025;32;34878;-80
2024/01/28 08:08:38;;;;;;;;;;;;;;;4.04;67.83;101467.72;4418174;32;35273;-80
2024/01/28 08:11:09;;;;;;;;;;;;;;;4.33;67.11;101470.59;4533709;26;34050;-80
2024/01/28 08:13:38;;;;;;;;;;;;;;;4.40;66.79;101470.91;4415486;32;33534;-80
2024/01/28 08:16:07;;;;;;;;;;;;;;;4.46;66.81;101473.72;4431389;27;34045;-81
2024/01/28 08:18:38;;;;;;;;;;;;;;;4.60;66.34;101468.25;4413890;32;34460;-80
2024/01/28 08:21:13;;;;;;;;;;;;;;;4.60;66.17;101464.00;4415670;32;34056;-81
2024/01/28 08:23:42;;;;;;;;;;;;;;;4.66;65.99;101478.75;4408346;32;34081;-81
2024/01/28 08:26:15;;;;;;;;;;;;;;;4.80;65.33;101477.63;4415586;32;33916;-81
2024/01/28 08:28:46;;;;;;;;;;;;;;;4.69;65.97;101477.22;4411700;32;33882;-81
2024/01/28 08:31:17;;;;;;;;;;;;;;;4.69;66.01;101486.62;4418234;32;32792;-80
2024/01/28 08:33:46;;;;;;;;;;;;;;;4.87;65.01;101487.31;4407821;32;33562;-81
2024/01/28 08:36:17;;;;;;;;;;;;;;;5.11;64.71;101491.66;4394618;32;33375;-80
2024/01/28 08:38:48;;;;;;;;;;;;;;;5.18;64.29;101485.94;4415693;32;33819;-80
2024/01/28 08:41:16;;;;;;;;;;;;;;;5.21;64.05;101480.87;4419728;32;33108;-80
2024/01/28 08:43:47;;;;;;;;;;;;;;;5.17;64.07;101491.91;4415527;32;34859;-81
2024/01/28 08:46:16;;;;;;;;;;;;;;;5.29;63.80;101488.88;4411967;32;33517;-80
2024/01/28 08:48:48;;;;;;;;;;;;;;;5.18;63.77;101490.22;4412486;32;35995;-80
2024/01/28 08:51:20;;;;;;;;;;;;;;;5.12;64.24;101494.31;4408359;32;33458;-80
2024/01/28 08:53:54;;;;;;;;;;;;;;;5.11;64.40;101501.94;4421001;32;33793;-81
2024/01/28 08:56:22;;;;;;;;;;;;;;;5.15;64.16;101498.69;4405554;32;34253;-80
2024/01/28 08:58:51;;;;;;;;;;;;;;;5.42;63.60;101503.97;4416361;32;33592;-80
2024/01/28 09:01:21;;;;;;;;;;;;;;;5.76;62.45;101516.38;4415050;32;33460;-81
2024/01/28 09:03:52;;;;;;;;;;;;;;;5.58;62.58;101515.69;4420153;32;33532;-80
2024/01/28 09:06:23;;;;;;;;;;;;;;;5.52;62.61;101521.50;4414168;32;33900;-81
2024/01/28 09:08:52;;;;;;;;;;;;;;;5.55;62.55;101526.75;4415325;32;35010;-81
2024/01/28 09:11:24;;;;;;;;;;;;;;;5.94;61.69;101525.59;4414493;32;33739;-81
2024/01/28 09:13:58;;;;;;;;;;;;;;;5.72;62.23;101535.09;4409033;32;33989;-81
2024/01/28 09:16:27;;;;;;;;;;;;;;;5.76;61.84;101542.13;4417961;32;33580;-80
2024/01/28 09:18:56;;;;;;;;;;;;;;;5.65;62.22;101530.53;4407782;32;34469;-81
2024/01/28 09:21:30;;;;;;;;;;;;;;;5.56;62.68;101527.66;4414275;32;33158;-80
2024/01/28 09:24:02;;;;;;;;;;;;;;;5.42;63.57;101534.00;4404119;32;33322;-80
2024/01/28 09:26:31;;;;;;;;;;;;;;;5.56;63.27;101528.53;4416627;32;33859;-80
2024/01/28 09:29:01;;;;;;;;;;;;;;;5.61;62.98;101532.97;4416725;32;33560;-81
2024/01/28 09:31:30;;;;;;;;;;;;;;;5.55;63.36;101537.06;4409482;32;32914;-80
2024/01/28 09:34:04;;;;;;;;;;;;;;;5.59;62.87;101544.91;4402917;32;33838;-81
2024/01/28 09:36:34;;;;;;;;;;;;;;;5.61;62.78;101549.31;4407825;32;33771;-81
2024/01/28 09:39:07;;;;;;;;;;;;;;;5.72;62.86;101553.13;4421512;32;34474;-81
2024/01/28 09:41:37;;;;;;;;;;;;;;;5.83;62.51;101550.94;4421244;32;32963;-81
2024/01/28 09:44:07;;;;;;;;;;;;;;;5.82;62.24;101563.75;4407564;32;34012;-81
2024/01/28 09:46:38;;;;;;;;;;;;;;;5.95;62.29;101558.28;4410507;32;34026;-80
2024/01/28 09:49:11;;;;;;;;;;;;;;;5.97;62.55;101554.06;4412203;32;34153;-81
2024/01/28 09:51:42;;;;;;;;;;;;;;;5.98;62.01;101554.09;4419104;32;33100;-81
2024/01/28 09:54:18;;;;;;;;;;;;;;;6.13;61.56;101552.88;4408502;32;33811;-81
2024/01/28 09:56:52;;;;;;;;;;;;;;;6.23;61.62;101549.78;4409801;32;33985;-81
2024/01/28 09:59:21;;;;;;;;;;;;;;;6.40;60.65;101556.41;4409373;32;34701;-81
2024/01/28 10:01:53;;;;;;;;;;;;;;;6.49;60.14;101554.97;4420861;32;33269;-81
2024/01/28 10:04:23;;;;;;;;;;;;;;;6.54;60.08;101559.44;4417127;32;33742;-81
2024/01/28 10:06:57;;;;;;;;;;;;;;;6.56;59.86;101552.63;4409678;32;33838;-81
2024/01/28 10:09:26;;;;;;;;;;;;;;;6.72;59.75;101556.59;4411714;32;33881;-81
2024/01/28 10:11:58;;;;;;;;;;;;;;;6.69;59.24;101546.16;4401292;32;33404;-81
2024/01/28 10:14:27;;;;;;;;;;;;;;;6.65;59.05;101552.06;4415117;32;33413;-80
2024/01/28 10:17:11;;;;;;;;;;;;;;;6.68;59.39;101546.13;4402548;32;34963;-81
2024/01/28 10:19:42;;;;;;;;;;;;;;;6.68;59.31;101554.75;4411145;32;34204;-81
2024/01/28 10:22:12;;;;;;;;;;;;;;;6.70;59.20;101545.34;4407536;32;33888;-81
2024/01/28 10:24:44;;;;;;;;;;;;;;;6.67;59.73;101541.78;4402268;32;35153;-81
2024/01/28 10:27:13;;;;;;;;;;;;;;;6.54;60.44;101543.09;4414936;32;33904;-81
2024/01/28 10:29:44;;;;;;;;;;;;;;;6.73;60.14;101542.00;4413011;32;34744;-81
2024/01/28 10:32:13;;;;;;;;;;;;;;;6.87;59.73;101530.41;4417325;32;33820;-82
2024/01/28 10:34:44;;;;;;;;;;;;;;;7.21;58.96;101528.87;4409051;32;33552;-81
2024/01/28 10:37:14;;;;;;;;;;;;;;;7.26;58.32;101533.34;4420956;32;34809;-81
2024/01/28 10:39:44;;;;;;;;;;;;;;;7.42;57.97;101528.66;4405971;32;35452;-80
2024/01/28 10:42:13;;;;;;;;;;;;;;;7.38;57.26;101525.06;4409166;32;33474;-81
2024/01/28 10:44:45;;;;;;;;;;;;;;;7.31;57.76;101523.16;4408021;32;33939;-81
2024/01/28 10:47:15;;;;;;;;;;;;;;;7.51;57.53;101520.28;4405707;32;34740;-81
2024/01/28 10:49:47;;;;;;;;;;;;;;;7.53;57.26;101511.72;4415686;32;34789;-82
2024/01/28 10:52:19;;;;;;;;;;;;;;;7.67;57.40;101507.81;4409172;32;32988;-82
2024/01/28 10:54:48;;;;;;;;;;;;;;;7.84;56.92;101504.84;4415451;32;34177;-81
2024/01/28 10:57:17;;;;;;;;;;;;;;;7.79;56.56;101509.88;4419559;32;33664;-81
2024/01/28 10:59:51;;;;;;;;;;;;;;;7.78;56.20;101500.41;4425189;32;34698;-81
2024/01/28 11:02:20;;;;;;;;;;;;;;;7.60;57.50;101497.28;4421247;32;33627;-82
2024/01/28 11:04:49;;;;;;;;;;;;;;;7.70;57.00;101500.16;4419542;32;34321;-82
2024/01/28 11:07:22;;;;;;;;;;;;;;;7.84;56.44;101494.50;4417646;32;33890;-81
2024/01/28 11:09:53;;;;;;;;;;;;;;;8.09;55.87;101501.19;4418818;32;33671;-81
2024/01/28 11:12:22;;;;;;;;;;;;;;;8.01;55.31;101510.47;4422499;32;33903;-81
2024/01/28 11:14:53;;;;;;;;;;;;;;;7.71;56.22;101508.81;4413486;32;33804;-82
2024/01/28 11:17:30;;;;;;;;;;;;;;;7.86;56.04;101500.59;4408647;32;34284;-81
2024/01/28 11:20:08;;;;;;;;;;;;;;;7.80;56.69;101506.44;4415035;32;34105;-81
2024/01/28 11:22:48;;;;;;;;;;;;;;;7.99;55.78;101505.25;4414585;32;33734;-82
2024/01/28 11:25:21;;;;;;;;;;;;;;;7.89;55.58;101505.84;4418935;32;33786;-81
2024/01/28 11:27:51;;;;;;;;;;;;;;;7.97;55.97;101501.72;4408253;32;34324;-81
2024/01/28 11:30:20;;;;;;;;;;;;;;;8.11;55.98;101499.53;4418010;32;34863;-82
2024/01/28 11:32:49;;;;;;;;;;;;;;;8.44;54.74;101503.84;4405426;32;33577;-81
2024/01/28 11:35:25;;;;;;;;;;;;;;;8.20;54.65;101497.19;4407007;32;33969;-81
2024/01/28 11:37:56;;;;;;;;;;;;;;;8.21;54.33;101495.47;4422765;32;34596;-81
2024/01/28 11:40:29;;;;;;;;;;;;;;;8.32;54.59;101494.03;4418010;32;34646;-81
2024/01/28 11:42:59;;;;;;;;;;;;;;;8.36;54.35;101493.28;4416736;32;33087;-81
2024/01/28 11:45:29;;;;;;;;;;;;;;;8.05;55.27;101483.88;4428864;32;34191;-81
2024/01/28 11:47:58;;;;;;;;;;;;;;;8.24;54.74;101482.59;4427823;32;33980;-81
2024/01/28 11:50:30;;;;;;;;;;;;;;;8.10;54.46;101484.84;4417474;32;33953;-81
2024/01/28 11:53:00;;;;;;;;;;;;;;;7.98;54.93;101481.97;4415441;32;33226;-81
2024/01/28 11:55:29;;;;;;;;;;;;;;;8.10;54.99;101472.81;4404522;32;34662;-81
2024/01/28 11:57:58;;;;;;;;;;;;;;;8.36;53.77;101485.53;4426351;32;34680;-81
2024/01/28 12:00:31;;;;;;;;;;;;;;;8.40;53.56;101491.66;4422311;32;34790;-81
2024/01/28 12:03:00;;;;;;;;;;;;;;;8.53;53.51;101491.13;4430517;32;33991;-81
2024/01/28 12:05:32;;;;;;;;;;;;;;;8.57;53.14;101482.59;4422335;32;33855;-82
2024/01/28 12:08:02;;;;;;;;;;;;;;;8.18;54.02;101478.16;4417485;32;35157;-81
2024/01/28 12:10:38;;;;;;;;;;;;;;;8.51;52.68;101482.47;4419711;32;34041;-82
2024/01/28 12:13:09;;;;;;;;;;;;;;;8.53;52.15;101484.25;4422356;32;33102;-81
2024/01/28 12:15:43;;;;;;;;;;;;;;;8.86;51.34;101484.97;4416141;32;33574;-82
2024/01/28 12:18:18;;;;;;;;;;;;;;;8.55;52.37;101484.25;4417243;32;33815;-81
2024/01/28 12:20:50;;;;;;;;;;;;;;;8.80;51.84;101490.91;4418077;32;33768;-81
2024/01/28 12:23:23;;;;;;;;;;;;;;;8.74;52.07;101488.16;4422281;32;33396;-81
2024/01/28 12:25:51;;;;;;;;;;;;;;;8.73;51.35;101479.53;4420418;32;33888;-81
2024/01/28 12:28:28;;;;;;;;;;;;;;;8.66;52.34;101477.63;4419534;32;33990;-81
2024/01/28 12:30:59;;;;;;;;;;;;;;;8.79;52.05;101475.31;4419503;32;34072;-80
2024/01/28 12:33:29;;;;;;;;;;;;;;;8.81;51.45;101481.41;4417950;32;33479;-81
2024/01/28 12:36:05;;;;;;;;;;;;;;;8.83;51.41;101482.34;4429761;32;33668;-82
2024/01/28 12:38:35;;;;;;;;;;;;;;;8.95;50.58;101483.47;4416289;32;33709;-81
2024/01/28 12:41:05;;;;;;;;;;;;;;;8.83;50.73;101479.75;4416135;32;34187;-82
2024/01/28 12:43:34;;;;;;;;;;;;;;;8.81;51.05;101471.06;4416316;32;32415;-81
2024/01/28 12:46:05;;;;;;;;;;;;;;;8.82;50.80;101477.97;4416719;32;33709;-81
2024/01/28 12:48:35;;;;;;;;;;;;;;;9.06;50.10;101468.19;4422031;32;34914;-81
2024/01/28 12:51:07;;;;;;;;;;;;;;;9.11;50.09;101466.56;4418335;32;34045;-81
2024/01/28 12:53:37;;;;;;;;;;;;;;;9.06;50.38;101475.97;4416368;32;33625;-81
2024/01/28 12:56:07;;;;;;;;;;;;;;;8.99;50.05;101468.91;4415931;32;34910;-81
2024/01/28 12:58:37;;;;;;;;;;;;;;;9.11;49.89;101476.03;4421915;32;33884;-81
2024/01/28 13:01:06;;;;;;;;;;;;;;;9.03;49.96;101478.47;4421268;32;34334;-81
2024/01/28 13:03:37;;;;;;;;;;;;;;;9.00;50.11;101474.94;4416389;32;33580;-81
2024/01/28 13:06:12;;;;;;;;;;;;;;;9.17;49.26;101473.59;4415215;32;34254;-81
2024/01/28 13:08:42;;;;;;;;;;;;;;;9.19;49.23;101482.25;4420461;32;34296;-82
2024/01/28 13:11:11;;;;;;;;;;;;;;;8.98;49.18;101478.34;4414333;32;35793;-81